Portada
METAR-TAF:

METAR-TAF

Aeroports :

Kupang, Indonèsia

latitud: 10-10-17S, longitud: 123-40-16E, altitud: 102 m

Observació

L'informe es va fer fa 50 minuts, a les 01:00 UTC
Vent 7 kt del Nord-Oest
Temperatura 30°C
Humitat 66%
Pressió 1012 hPa
Visibilitat 10 km o més
Escasses núvols a una alçada de 1800 ft

METAR: WATT 140100Z 32007KT 9999 FEW018 30/23 Q1012 NOSIG

Hora: 08:50 (01:50 UTC)

Pronòstic

L'informe es va fer fa 2 hores i 50 minuts, a les 23:00 UTC
Pronòstic vàlid del 14 a les 00 UTC al 14 a les 24 UTC
Vent 7 kt del Sud-Est
Visibilitat 10 km o més
Núvols disperses a una alçada de 1800 ft
Evolucionant progressivament
l' 14 a les 04 UTC al 14 a les 06 UTC
Vent 16 kt del Oest/Nord-Oest
Evolucionant progressivament
l' 14 a les 12 UTC al 14 a les 14 UTC
Vent 3 kt del Est/Nord-Est

TAF: WATT 132300Z 1400/1424 14007KT 9999 SCT018 BECMG 1404/1406 30016KT BECMG 1412/1414 06003KT

Observacions i pronòstics meteorològics de més de 4000 aeroports (METAR i TAF).

Les estacions disponibles són els punts grocs i vermells al mapa.

Posi el ratolí al punt desitjat per veure el nom de l'estació.

Feu clic per veure les observacions i els pronòstics meteorològics.

Per canviar el mapa: feu clic els botons verds amb una creu de color negre per apropar; al botó verd amb un guió per allunyar la imatge; o en les fletxes verdes per a mapes adjacents.


METAR-TAF: